createdAt,value
2018-10-05T00:02:34.876Z,0.58
2018-10-05T00:08:29.916Z,0.63
2018-10-05T00:14:24.892Z,0.64
2018-10-05T00:20:19.958Z,0.94
2018-10-05T00:26:14.957Z,0.77
2018-10-05T00:32:09.903Z,0.9
2018-10-05T00:38:04.949Z,0.77
2018-10-05T00:43:59.915Z,0.6
2018-10-05T00:49:54.910Z,0.94
2018-10-05T00:55:49.926Z,0.66
2018-10-05T01:01:44.994Z,0.76
2018-10-05T01:07:39.913Z,0.71
2018-10-05T01:13:34.930Z,0.71
2018-10-05T01:19:29.927Z,0.82
2018-10-05T01:25:24.992Z,0.69
2018-10-05T01:31:19.957Z,0.7
2018-10-05T01:37:14.976Z,0.69
2018-10-05T01:43:09.964Z,0.72
2018-10-05T01:49:04.945Z,0.79
2018-10-05T01:54:59.942Z,0.77
2018-10-05T02:00:54.958Z,0.83
2018-10-05T02:06:50.009Z,0.73
2018-10-05T02:12:44.971Z,0.79
2018-10-05T02:18:39.971Z,0.74
2018-10-05T02:24:35.064Z,0.89
2018-10-05T02:30:29.995Z,0.91
2018-10-05T02:36:24.971Z,1.16
2018-10-05T02:42:20.020Z,1.4
2018-10-05T02:48:14.967Z,2.04
2018-10-05T02:54:09.994Z,2.03
2018-10-05T03:00:05.006Z,2.31
2018-10-05T03:06:00.028Z,1.92
2018-10-05T03:11:55.037Z,1.77
2018-10-05T03:17:50.016Z,1.92
2018-10-05T03:23:45.016Z,1.15
2018-10-05T03:29:40.048Z,1.14
2018-10-05T03:35:35.069Z,1.43
2018-10-05T03:41:30.004Z,1.45
2018-10-05T03:47:25.024Z,1.6
2018-10-05T03:53:20.024Z,1.25
2018-10-05T03:59:15.030Z,1.52
2018-10-05T04:05:10.067Z,1.34
2018-10-05T04:11:05.070Z,1.17
2018-10-05T04:17:00.045Z,1.55
2018-10-05T04:22:55.041Z,1.8
2018-10-05T04:28:50.033Z,1.22
2018-10-05T04:34:45.053Z,1.15
2018-10-05T04:40:40.067Z,1.37
2018-10-05T04:46:35.103Z,1.25
2018-10-05T04:52:30.053Z,1.29
2018-10-05T04:58:25.090Z,0.89
2018-10-05T05:04:20.114Z,1.03
2018-10-05T05:10:15.089Z,1.22
2018-10-05T05:16:10.086Z,1.06
2018-10-05T05:22:05.125Z,1.33
2018-10-05T05:28:00.072Z,1.18
2018-10-05T05:33:55.144Z,0.89
2018-10-05T05:39:50.131Z,1.37
2018-10-05T05:45:45.089Z,1.46
2018-10-05T05:51:40.082Z,1.43
2018-10-05T05:57:35.090Z,1.65
2018-10-05T06:03:30.101Z,1.03
2018-10-05T06:09:25.137Z,1.47
2018-10-05T06:15:20.128Z,1.59
2018-10-05T06:21:15.109Z,1.51
2018-10-05T06:27:10.188Z,1.61
2018-10-05T06:33:05.127Z,1.24
2018-10-05T06:39:00.165Z,1.63
2018-10-05T06:44:55.138Z,1.4
2018-10-05T06:50:50.149Z,1.32
2018-10-05T06:56:45.176Z,1.59
2018-10-05T07:02:40.155Z,1.45
2018-10-05T07:08:35.140Z,1.83
2018-10-05T07:14:30.160Z,1.44
2018-10-05T07:20:25.144Z,1.58
2018-10-05T07:26:20.155Z,1.56
2018-10-05T07:32:15.158Z,1.62
2018-10-05T07:38:10.177Z,1.62
2018-10-05T07:44:05.174Z,1.35
2018-10-05T07:50:00.198Z,1.59
2018-10-05T07:55:55.163Z,1.37
2018-10-05T08:01:50.188Z,1.41
2018-10-05T08:07:45.168Z,1.8
2018-10-05T08:13:40.203Z,1.62
2018-10-05T08:19:35.174Z,1.35
2018-10-05T08:25:30.187Z,1.64
2018-10-05T08:31:25.187Z,4.39
2018-10-05T08:37:20.200Z,1.71
2018-10-05T08:43:15.191Z,1.92
2018-10-05T08:49:10.240Z,1.64
2018-10-05T08:55:05.197Z,1.65
2018-10-05T09:01:00.211Z,1.94
2018-10-05T09:06:55.224Z,1.55
2018-10-05T09:12:50.216Z,2.06
2018-10-05T09:18:45.232Z,1.63
2018-10-05T09:24:40.232Z,1.82
2018-10-05T09:30:35.298Z,1.4
2018-10-05T09:36:30.284Z,1.8
2018-10-05T09:42:25.233Z,1.57
2018-10-05T09:48:20.221Z,1.76
2018-10-05T09:54:15.226Z,1.71
2018-10-05T10:00:10.338Z,1.43
2018-10-05T10:06:05.254Z,1.94
2018-10-05T10:12:00.305Z,1.82
2018-10-05T10:17:55.253Z,1.77
2018-10-05T10:23:50.285Z,1.64
2018-10-05T10:29:45.264Z,1.44
2018-10-05T10:35:40.291Z,1.67
2018-10-05T10:41:35.290Z,1.7
2018-10-05T10:47:30.301Z,1.43
2018-10-05T10:53:25.283Z,1.97
2018-10-05T10:59:20.291Z,2.09
2018-10-05T11:05:15.283Z,1.87
2018-10-05T11:11:10.365Z,1.98
2018-10-05T11:17:05.326Z,1.85
2018-10-05T11:23:00.296Z,1.78
2018-10-05T11:28:55.396Z,2.07
2018-10-05T11:34:50.296Z,1.62
2018-10-05T11:40:45.346Z,1.71
2018-10-05T11:46:40.336Z,1.68
2018-10-05T11:52:35.471Z,1.97
2018-10-05T11:58:30.350Z,1.78
2018-10-05T12:04:25.323Z,1.87
2018-10-05T12:10:20.358Z,1.96
2018-10-05T12:16:15.363Z,1.9
2018-10-05T12:22:10.339Z,1.66
2018-10-05T12:28:05.341Z,2.43
2018-10-05T12:34:00.334Z,1.93
2018-10-05T12:39:55.389Z,2.06
2018-10-05T12:45:50.355Z,1.78
2018-10-05T12:51:45.378Z,1.91
2018-10-05T12:57:40.368Z,2.41
2018-10-05T13:03:35.369Z,2.45
2018-10-05T13:09:30.411Z,2.4
2018-10-05T13:15:25.383Z,2.18
2018-10-05T13:21:20.371Z,2.13
2018-10-05T13:27:15.385Z,1.74
2018-10-05T13:33:10.386Z,2.29
2018-10-05T13:39:05.434Z,2.17
2018-10-05T13:45:00.378Z,2.03
2018-10-05T13:50:55.398Z,2.21
2018-10-05T13:56:50.398Z,1.9
2018-10-05T14:02:45.491Z,1.83
2018-10-05T14:08:40.471Z,1.87
2018-10-05T14:14:35.417Z,1.84
2018-10-05T14:20:30.527Z,1.82
2018-10-05T14:26:25.453Z,1.77
2018-10-05T14:32:20.413Z,2.3
2018-10-05T14:38:15.418Z,1.87
2018-10-05T14:44:10.418Z,2.57
2018-10-05T14:50:05.455Z,2.23
2018-10-05T14:56:00.427Z,2.28
2018-10-05T15:01:55.437Z,2.64
2018-10-05T15:07:50.462Z,2.3
2018-10-05T15:13:45.493Z,2.4
2018-10-05T15:19:40.468Z,2.46
2018-10-05T15:25:35.477Z,2.23
2018-10-05T15:31:30.443Z,2.36
2018-10-05T15:37:25.465Z,2.58
2018-10-05T15:43:20.455Z,2.58
2018-10-05T15:49:15.483Z,2.62
2018-10-05T15:55:10.505Z,2.19
2018-10-05T16:01:05.503Z,2.08
2018-10-05T16:07:00.484Z,2.06
2018-10-05T16:12:55.538Z,2.7
2018-10-05T16:18:50.503Z,2.35
2018-10-05T16:24:45.546Z,2.06
2018-10-05T16:30:40.497Z,1.9
2018-10-05T16:36:35.496Z,2.27
2018-10-05T16:42:30.509Z,2.15
2018-10-05T16:48:25.547Z,2.84
2018-10-05T16:54:20.530Z,1.99
2018-10-05T17:00:15.506Z,2.43
2018-10-05T17:06:10.499Z,2.77
2018-10-05T17:12:05.513Z,2.27
2018-10-05T17:18:00.536Z,2.13
2018-10-05T17:23:55.580Z,2.88
2018-10-05T17:29:50.548Z,2.95
2018-10-05T17:35:45.549Z,2.54
2018-10-05T17:41:40.528Z,2.68
2018-10-05T17:47:35.538Z,2.31
2018-10-05T17:53:30.538Z,2.37
2018-10-05T17:59:25.586Z,2.06
2018-10-05T18:05:20.552Z,2.7
2018-10-05T18:11:15.558Z,2.29
2018-10-05T18:17:10.578Z,2.67
2018-10-05T18:23:05.582Z,2.42
2018-10-05T18:29:00.574Z,3.07
2018-10-05T18:34:55.619Z,2.63
2018-10-05T18:40:50.576Z,2.93
2018-10-05T18:46:45.605Z,2.83
2018-10-05T18:52:40.581Z,7.33
2018-10-05T18:58:35.585Z,3
2018-10-05T19:04:30.637Z,2.99
2018-10-05T19:10:25.627Z,2.2
2018-10-05T19:16:20.619Z,2.92
2018-10-05T19:22:15.626Z,3.27
2018-10-05T19:28:10.629Z,5.61
2018-10-05T19:34:05.611Z,2.76
2018-10-05T19:40:00.608Z,3.03
2018-10-05T19:45:55.623Z,5.39
2018-10-05T19:51:50.624Z,3.91
2018-10-05T19:57:45.618Z,4.09
2018-10-05T20:03:40.619Z,3.6
2018-10-05T20:09:35.649Z,3.62
2018-10-05T20:15:30.627Z,3.52
2018-10-05T20:21:25.639Z,3.83
2018-10-05T20:27:20.673Z,4.46
2018-10-05T20:33:15.660Z,4.62
2018-10-05T20:39:10.641Z,4.06
2018-10-05T20:45:05.666Z,4.4
2018-10-05T20:51:00.664Z,7.02
2018-10-05T20:56:55.692Z,6.08
2018-10-05T21:02:50.707Z,5.42
2018-10-05T21:08:45.685Z,5.59
2018-10-05T21:14:40.700Z,4.42
2018-10-05T21:20:35.724Z,4.67
2018-10-05T21:26:30.664Z,5.26
2018-10-05T21:32:25.688Z,4.64
2018-10-05T21:38:20.758Z,4.21
2018-10-05T21:44:15.695Z,4.52
2018-10-05T21:50:10.702Z,4.62
2018-10-05T21:56:05.689Z,4.29
2018-10-05T22:02:00.722Z,4.45
2018-10-05T22:07:55.705Z,4.97
2018-10-05T22:13:50.739Z,4.47
2018-10-05T22:19:45.737Z,4.69
2018-10-05T22:25:40.715Z,4.52
2018-10-05T22:31:35.702Z,6.51
2018-10-05T22:37:30.753Z,9.17
2018-10-05T22:43:25.725Z,9.37
2018-10-05T22:49:20.741Z,8.56
2018-10-05T22:55:15.739Z,10.07
2018-10-05T23:01:10.763Z,7.5
2018-10-05T23:07:05.730Z,6.46
2018-10-05T23:13:00.742Z,5.68
2018-10-05T23:18:55.770Z,6.03
2018-10-05T23:24:50.811Z,5.42
2018-10-05T23:30:45.761Z,5.56
2018-10-05T23:36:40.833Z,4.97
2018-10-05T23:42:35.788Z,4.83
2018-10-05T23:48:30.761Z,5.16
2018-10-05T23:54:25.796Z,4.79
